Time;durP1;ratioP1;P1;durP2;ratioP2;P2;SDS_P1;SDS_P2;PMS_P1;PMS_P2;Temp;Humidity;BMP_temperature;BMP_pressure;BME280_temperature;BME280_humidity;BME280_pressure;Samples;Min_cycle;Max_cycle;Signal;HPM_P1;HPM_P2
2020/12/28 00:01:59;;;;;;;7.63;4.00;;;;;;;;;;5100625;28;20081;-82
2020/12/28 00:04:26;;;;;;;5.78;3.10;;;;;;;;;;5100526;28;20024;-82
2020/12/28 00:06:52;;;;;;;9.43;5.13;;;;;;;;;;5100438;28;20450;-81
2020/12/28 00:09:18;;;;;;;7.40;4.03;;;;;;;;;;5100261;28;20093;-83
2020/12/28 00:11:44;;;;;;;7.55;4.40;;;;;;;;;;5099681;28;20064;-81
2020/12/28 00:14:10;;;;;;;7.20;3.90;;;;;;;;;;5099379;28;20319;-82
2020/12/28 00:16:36;;;;;;;5.68;3.15;;;;;;;;;;5100429;28;20089;-82
2020/12/28 00:19:02;;;;;;;7.32;4.00;;;;;;;;;;5100359;28;20028;-81
2020/12/28 00:21:28;;;;;;;4.60;2.80;;;;;;;;;;5099348;28;20036;-82
2020/12/28 00:23:54;;;;;;;5.88;3.33;;;;;;;;;;5100190;28;20023;-83
2020/12/28 00:26:20;;;;;;;5.85;2.95;;;;;;;;;;5100165;28;20047;-83
2020/12/28 00:28:46;;;;;;;5.50;3.10;;;;;;;;;;5099955;28;20073;-83
2020/12/28 00:31:13;;;;;;;7.13;3.67;;;;;;;;;;5100261;28;20024;-83
2020/12/28 00:33:39;;;;;;;6.70;3.88;;;;;;;;;;5100162;28;20024;-83
2020/12/28 00:36:25;;;;;;;5.28;2.85;;;;;;;;;;5100016;28;20410;-84
2020/12/28 00:38:51;;;;;;;7.55;3.65;;;;;;;;;;5099802;28;20032;-82
2020/12/28 00:41:17;;;;;;;6.32;3.65;;;;;;;;;;5099860;28;20028;-82
2020/12/28 00:43:44;;;;;;;6.05;3.03;;;;;;;;;;5099826;28;20340;-82
2020/12/28 00:46:10;;;;;;;5.70;3.47;;;;;;;;;;5099894;28;20024;-82
2020/12/28 00:48:36;;;;;;;5.55;3.53;;;;;;;;;;5099853;28;20138;-82
2020/12/28 00:51:03;;;;;;;7.03;3.53;;;;;;;;;;5099615;28;20028;-83
2020/12/28 00:53:29;;;;;;;5.60;3.15;;;;;;;;;;5099332;28;20074;-82
2020/12/28 00:55:56;;;;;;;7.40;3.95;;;;;;;;;;5099548;28;20024;-82
2020/12/28 00:58:22;;;;;;;5.18;3.38;;;;;;;;;;5098832;28;20044;-83
2020/12/28 01:00:48;;;;;;;5.47;3.67;;;;;;;;;;5099398;28;20050;-82
2020/12/28 01:03:15;;;;;;;5.47;3.28;;;;;;;;;;5099614;28;20048;-83
2020/12/28 01:05:41;;;;;;;4.95;3.28;;;;;;;;;;5099431;28;20032;-82
2020/12/28 01:08:07;;;;;;;5.10;3.08;;;;;;;;;;5099162;28;20038;-82
2020/12/28 01:10:34;;;;;;;5.22;3.35;;;;;;;;;;5099313;28;20066;-83
2020/12/28 01:13:00;;;;;;;5.15;3.17;;;;;;;;;;5099143;28;20115;-83
2020/12/28 01:15:26;;;;;;;4.47;2.83;;;;;;;;;;5099314;28;20073;-82
2020/12/28 01:17:54;;;;;;;4.57;3.03;;;;;;;;;;5098356;28;20028;-83
2020/12/28 01:20:20;;;;;;;6.28;3.33;;;;;;;;;;5099108;28;20016;-82
2020/12/28 01:22:46;;;;;;;7.40;3.75;;;;;;;;;;5099013;28;20158;-83
2020/12/28 01:25:12;;;;;;;5.07;2.60;;;;;;;;;;5098386;28;20127;-84
2020/12/28 01:27:38;;;;;;;4.80;2.97;;;;;;;;;;5099141;28;20066;-83
2020/12/28 01:30:04;;;;;;;5.40;3.30;;;;;;;;;;5097840;28;20031;-83
2020/12/28 01:32:30;;;;;;;4.82;3.03;;;;;;;;;;5098922;28;20016;-85
2020/12/28 01:34:56;;;;;;;6.28;3.50;;;;;;;;;;5098973;28;20024;-82
2020/12/28 01:37:22;;;;;;;4.75;3.35;;;;;;;;;;5097518;28;20024;-84
2020/12/28 01:39:48;;;;;;;6.75;3.88;;;;;;;;;;5098936;28;20028;-83
2020/12/28 01:42:14;;;;;;;8.35;4.90;;;;;;;;;;5097859;28;20024;-86
2020/12/28 01:44:40;;;;;;;6.13;3.65;;;;;;;;;;5098798;28;20024;-83
2020/12/28 01:47:06;;;;;;;7.50;4.97;;;;;;;;;;5098442;28;20303;-84
2020/12/28 01:49:32;;;;;;;11.13;6.85;;;;;;;;;;5098339;28;20024;-83
2020/12/28 01:52:00;;;;;;;10.73;6.72;;;;;;;;;;5098422;28;20020;-84
2020/12/28 01:54:26;;;;;;;9.18;5.38;;;;;;;;;;5098903;28;20032;-83
2020/12/28 01:56:52;;;;;;;8.77;5.43;;;;;;;;;;5098286;28;20040;-83
2020/12/28 01:59:19;;;;;;;11.07;4.97;;;;;;;;;;5098659;28;20111;-82
2020/12/28 02:01:45;;;;;;;9.50;5.30;;;;;;;;;;5097256;28;20115;-82
2020/12/28 02:04:14;;;;;;;12.18;5.25;;;;;;;;;;5098240;28;20107;-83
2020/12/28 02:06:40;;;;;;;10.30;5.18;;;;;;;;;;5097179;28;20024;-83
2020/12/28 02:09:06;;;;;;;9.80;4.72;;;;;;;;;;5097429;28;20115;-82
2020/12/28 02:11:32;;;;;;;8.07;4.63;;;;;;;;;;5097871;28;20073;-82
2020/12/28 02:13:58;;;;;;;9.43;5.32;;;;;;;;;;5097962;28;20024;-80
2020/12/28 02:16:24;;;;;;;9.82;4.97;;;;;;;;;;5097851;28;20023;-80
2020/12/28 02:18:50;;;;;;;8.15;4.85;;;;;;;;;;5097742;28;20020;-81
2020/12/28 02:21:16;;;;;;;18.63;6.40;;;;;;;;;;5097855;28;20055;-80
2020/12/28 02:23:43;;;;;;;10.90;4.95;;;;;;;;;;5097811;28;20061;-80
2020/12/28 02:26:09;;;;;;;8.25;4.50;;;;;;;;;;5097564;28;20405;-82
2020/12/28 02:28:35;;;;;;;8.00;4.20;;;;;;;;;;5097474;28;20020;-79
2020/12/28 02:31:01;;;;;;;10.35;4.88;;;;;;;;;;5097459;28;20413;-81
2020/12/28 02:33:27;;;;;;;9.05;4.95;;;;;;;;;;5097639;28;20303;-79
2020/12/28 02:35:54;;;;;;;9.95;4.70;;;;;;;;;;5097617;28;20016;-80
2020/12/28 02:38:20;;;;;;;11.32;5.50;;;;;;;;;;5096437;28;20031;-81
2020/12/28 02:40:46;;;;;;;8.90;5.25;;;;;;;;;;5096605;28;20147;-81
2020/12/28 02:43:12;;;;;;;9.07;5.10;;;;;;;;;;5097744;28;20392;-80
2020/12/28 02:45:38;;;;;;;7.50;4.78;;;;;;;;;;5097355;28;20024;-80
2020/12/28 02:48:04;;;;;;;8.38;4.95;;;;;;;;;;5097126;28;20024;-80
2020/12/28 02:50:30;;;;;;;12.25;5.32;;;;;;;;;;5096298;28;20052;-80
2020/12/28 02:52:56;;;;;;;9.40;5.40;;;;;;;;;;5096311;28;20036;-80
2020/12/28 02:55:22;;;;;;;9.00;5.47;;;;;;;;;;5097353;28;20414;-82
2020/12/28 02:57:48;;;;;;;11.15;5.30;;;;;;;;;;5097267;28;20044;-83
2020/12/28 03:00:15;;;;;;;7.32;4.45;;;;;;;;;;5097707;28;20032;-84
2020/12/28 03:02:41;;;;;;;8.80;5.40;;;;;;;;;;5097622;28;20456;-84
2020/12/28 03:05:07;;;;;;;8.05;5.05;;;;;;;;;;5097739;28;20044;-83
2020/12/28 03:07:33;;;;;;;7.03;4.70;;;;;;;;;;5096334;28;20016;-83
2020/12/28 03:09:59;;;;;;;8.55;5.85;;;;;;;;;;5097496;28;20055;-83
2020/12/28 03:12:26;;;;;;;7.43;4.75;;;;;;;;;;5096231;28;20020;-82
2020/12/28 03:14:52;;;;;;;8.15;5.07;;;;;;;;;;5097154;28;20021;-83
2020/12/28 03:17:18;;;;;;;9.27;4.97;;;;;;;;;;5097116;28;20027;-81
2020/12/28 03:19:44;;;;;;;7.05;4.90;;;;;;;;;;5097106;28;20028;-81
2020/12/28 03:22:10;;;;;;;7.10;4.47;;;;;;;;;;5100275;28;20031;-82
2020/12/28 03:24:36;;;;;;;9.45;5.68;;;;;;;;;;5101240;28;20107;-82
2020/12/28 03:27:02;;;;;;;8.43;5.18;;;;;;;;;;5101109;28;20299;-82
2020/12/28 03:29:34;;;;;;;8.63;5.28;;;;;;;;;;5100942;28;20430;-83
2020/12/28 03:32:01;;;;;;;11.95;6.13;;;;;;;;;;5101126;28;20099;-83
2020/12/28 03:34:27;;;;;;;10.07;6.28;;;;;;;;;;5101066;28;20016;-83
2020/12/28 03:36:54;;;;;;;11.00;6.40;;;;;;;;;;5101300;28;20020;-83
2020/12/28 03:39:20;;;;;;;9.50;6.80;;;;;;;;;;5100955;28;20024;-83
2020/12/28 03:41:46;;;;;;;11.63;6.82;;;;;;;;;;5101243;28;20047;-84
2020/12/28 03:44:12;;;;;;;12.98;7.32;;;;;;;;;;5100020;28;20027;-83
2020/12/28 03:46:38;;;;;;;10.75;6.35;;;;;;;;;;5101156;28;20035;-84
2020/12/28 03:49:04;;;;;;;10.50;6.60;;;;;;;;;;5100808;28;20020;-83
2020/12/28 03:51:30;;;;;;;7.72;5.82;;;;;;;;;;5100884;28;20370;-83
2020/12/28 03:53:57;;;;;;;9.50;5.72;;;;;;;;;;5099569;28;20047;-82
2020/12/28 03:56:23;;;;;;;8.18;5.82;;;;;;;;;;5099530;28;20042;-82
2020/12/28 03:58:49;;;;;;;8.20;5.35;;;;;;;;;;5100431;28;20046;-82
2020/12/28 04:01:16;;;;;;;8.43;5.25;;;;;;;;;;5100768;28;20020;-83
2020/12/28 04:03:42;;;;;;;8.07;5.47;;;;;;;;;;5100583;28;20028;-82
2020/12/28 04:06:08;;;;;;;8.15;5.38;;;;;;;;;;5100724;28;20040;-82
2020/12/28 04:08:34;;;;;;;8.15;5.20;;;;;;;;;;5100280;28;20032;-81
2020/12/28 04:11:00;;;;;;;9.93;5.78;;;;;;;;;;5100257;28;20035;-83
2020/12/28 04:13:26;;;;;;;7.40;5.28;;;;;;;;;;5099164;28;20024;-82
2020/12/28 04:15:53;;;;;;;9.10;5.57;;;;;;;;;;5100279;28;20052;-82
2020/12/28 04:18:19;;;;;;;9.50;5.95;;;;;;;;;;5099044;28;20028;-82
2020/12/28 04:20:45;;;;;;;10.63;5.93;;;;;;;;;;5100240;28;20352;-82
2020/12/28 04:23:11;;;;;;;11.07;5.70;;;;;;;;;;5100265;28;20024;-83
2020/12/28 04:25:37;;;;;;;9.18;5.72;;;;;;;;;;5099720;28;20114;-82
2020/12/28 04:28:03;;;;;;;10.02;6.03;;;;;;;;;;5100320;28;20365;-83
2020/12/28 04:30:29;;;;;;;10.45;6.70;;;;;;;;;;5100310;28;20016;-83
2020/12/28 04:32:55;;;;;;;13.35;7.05;;;;;;;;;;5099075;28;20077;-83
2020/12/28 04:35:36;;;;;;;10.77;6.55;;;;;;;;;;5100026;28;20016;-84
2020/12/28 04:38:03;;;;;;;8.77;6.05;;;;;;;;;;5100003;28;20034;-83
2020/12/28 04:40:29;;;;;;;10.75;7.05;;;;;;;;;;5099894;28;20028;-83
2020/12/28 04:42:56;;;;;;;9.52;6.10;;;;;;;;;;5099648;28;20315;-83
2020/12/28 04:45:23;;;;;;;10.27;5.90;;;;;;;;;;5100048;28;20125;-82
2020/12/28 04:47:49;;;;;;;11.57;6.75;;;;;;;;;;5098942;28;20050;-83
2020/12/28 04:50:15;;;;;;;13.13;7.63;;;;;;;;;;5099412;28;20048;-82
2020/12/28 04:52:41;;;;;;;8.98;5.50;;;;;;;;;;5099441;28;20024;-82
2020/12/28 04:55:07;;;;;;;8.73;5.28;;;;;;;;;;5099377;28;20356;-82
2020/12/28 04:57:33;;;;;;;10.35;6.10;;;;;;;;;;5099239;28;20441;-83
2020/12/28 04:59:59;;;;;;;9.45;5.70;;;;;;;;;;5099241;28;20039;-83
2020/12/28 05:02:25;;;;;;;11.20;5.65;;;;;;;;;;5098531;28;20032;-83
2020/12/28 05:04:51;;;;;;;8.90;5.30;;;;;;;;;;5099341;28;20027;-83
2020/12/28 05:07:18;;;;;;;11.13;6.60;;;;;;;;;;5099284;28;20146;-83
2020/12/28 05:09:44;;;;;;;13.90;8.38;;;;;;;;;;5098476;28;20040;-83
2020/12/28 05:12:10;;;;;;;15.82;9.90;;;;;;;;;;5099362;28;20031;-83
2020/12/28 05:14:36;;;;;;;26.50;12.02;;;;;;;;;;5099375;28;20107;-84
2020/12/28 05:17:06;;;;;;;26.95;12.15;;;;;;;;;;5099414;28;20103;-84
2020/12/28 05:19:34;;;;;;;27.67;11.98;;;;;;;;;;5099057;28;20099;-81
2020/12/28 05:22:00;;;;;;;35.40;14.15;;;;;;;;;;5099069;28;20043;-83
2020/12/28 05:24:26;;;;;;;14.13;8.30;;;;;;;;;;5098118;28;20322;-83
2020/12/28 05:26:53;;;;;;;9.15;5.65;;;;;;;;;;5098865;28;20024;-83
2020/12/28 05:29:23;;;;;;;9.15;5.90;;;;;;;;;;5099139;28;20115;-83
2020/12/28 05:31:50;;;;;;;14.60;6.30;;;;;;;;;;5098794;28;20301;-83
2020/12/28 05:34:18;;;;;;;8.60;5.45;;;;;;;;;;5098647;28;20429;-83
2020/12/28 05:36:51;;;;;;;8.73;5.55;;;;;;;;;;5098806;28;20392;-83
2020/12/28 05:39:19;;;;;;;11.57;6.75;;;;;;;;;;5097472;28;20035;-81
2020/12/28 05:41:54;;;;;;;9.85;6.32;;;;;;;;;;5098629;28;20035;-82
2020/12/28 05:44:23;;;;;;;10.02;6.53;;;;;;;;;;5098784;28;20028;-82
2020/12/28 05:46:50;;;;;;;12.52;7.05;;;;;;;;;;5097504;28;20088;-82
2020/12/28 05:49:19;;;;;;;15.32;8.32;;;;;;;;;;5098292;28;20107;-82
2020/12/28 05:51:46;;;;;;;13.77;8.02;;;;;;;;;;5093034;28;20035;-81
2020/12/28 05:54:12;;;;;;;17.17;9.63;;;;;;;;;;5087820;28;20072;-79
2020/12/28 05:56:42;;;;;;;16.98;9.00;;;;;;;;;;5086496;28;20067;-83
2020/12/28 05:59:10;;;;;;;15.98;9.95;;;;;;;;;;5098261;28;20063;-83
2020/12/28 06:01:38;;;;;;;14.20;8.85;;;;;;;;;;5098314;28;20039;-83
2020/12/28 06:04:06;;;;;;;14.18;8.23;;;;;;;;;;5098499;28;20056;-83
2020/12/28 06:06:56;;;;;;;11.98;7.60;;;;;;;;;;5098194;28;20322;-83
2020/12/28 06:09:22;;;;;;;17.25;8.18;;;;;;;;;;5098019;28;20414;-83
2020/12/28 06:11:48;;;;;;;14.43;8.15;;;;;;;;;;5098074;28;20410;-82
2020/12/28 06:14:19;;;;;;;14.13;8.27;;;;;;;;;;5098077;28;20425;-82
2020/12/28 06:16:45;;;;;;;18.23;9.43;;;;;;;;;;5098101;28;20020;-82
2020/12/28 06:19:21;;;;;;;15.60;8.75;;;;;;;;;;5098205;28;20315;-83
2020/12/28 06:21:47;;;;;;;18.55;10.25;;;;;;;;;;5097619;28;20044;-83
2020/12/28 06:24:24;;;;;;;20.25;10.50;;;;;;;;;;5098283;28;20156;-83
2020/12/28 06:26:58;;;;;;;46.28;26.17;;;;;;;;;;5097923;28;20028;-83
2020/12/28 06:29:24;;;;;;;18.90;12.23;;;;;;;;;;5097741;28;20406;-83
2020/12/28 06:31:50;;;;;;;20.50;12.68;;;;;;;;;;5097906;28;20020;-83
2020/12/28 06:34:20;;;;;;;23.48;15.52;;;;;;;;;;5097015;28;20028;-84
2020/12/28 06:39:56;;;;;;;28.70;16.42;;;;;;;;;;5097779;28;20075;-83
2020/12/28 06:42:22;;;;;;;75.80;35.33;;;;;;;;;;5096639;28;20028;-83
2020/12/28 06:44:48;;;;;;;92.53;43.78;;;;;;;;;;5097607;28;20149;-83
2020/12/28 06:47:21;;;;;;;74.90;38.15;;;;;;;;;;5097551;28;20448;-83
2020/12/28 06:49:48;;;;;;;45.88;23.67;;;;;;;;;;5097573;28;20022;-84
2020/12/28 06:52:14;;;;;;;47.20;25.98;;;;;;;;;;5097510;28;20400;-82
2020/12/28 06:54:40;;;;;;;55.08;29.30;;;;;;;;;;5097510;28;20089;-85
2020/12/28 06:57:07;;;;;;;35.15;21.55;;;;;;;;;;5095859;28;20021;-83
2020/12/28 06:59:33;;;;;;;36.25;22.73;;;;;;;;;;5097509;28;20028;-83
2020/12/28 07:02:00;;;;;;;43.85;24.17;;;;;;;;;;5097622;28;20053;-82
2020/12/28 07:04:26;;;;;;;22.05;14.32;;;;;;;;;;5097578;28;20024;-83
2020/12/28 07:06:56;;;;;;;24.83;17.20;;;;;;;;;;5097315;28;20048;-83
2020/12/28 07:09:23;;;;;;;21.42;15.05;;;;;;;;;;5097014;28;20032;-83
2020/12/28 07:11:49;;;;;;;32.30;19.35;;;;;;;;;;5097551;28;20027;-82
2020/12/28 07:14:18;;;;;;;45.60;24.65;;;;;;;;;;5097198;28;20022;-82
2020/12/28 07:16:44;;;;;;;43.00;23.95;;;;;;;;;;5097371;28;20020;-81
2020/12/28 07:19:10;;;;;;;48.38;27.17;;;;;;;;;;5097281;28;20024;-81
2020/12/28 07:21:52;;;;;;;36.05;20.02;;;;;;;;;;5097361;28;20103;-82
2020/12/28 07:24:18;;;;;;;39.25;22.45;;;;;;;;;;5097412;28;20024;-81
2020/12/28 07:26:45;;;;;;;62.70;31.23;;;;;;;;;;5095841;28;20028;-81
2020/12/28 07:29:11;;;;;;;155.50;68.70;;;;;;;;;;5095834;28;20074;-82
2020/12/28 07:31:38;;;;;;;197.85;82.28;;;;;;;;;;5096904;28;20398;-81
2020/12/28 07:34:04;;;;;;;89.60;40.40;;;;;;;;;;5096940;28;20016;-81
2020/12/28 07:36:31;;;;;;;100.85;44.95;;;;;;;;;;5096964;28;20020;-81
2020/12/28 07:38:57;;;;;;;217.25;90.97;;;;;;;;;;5096855;28;20040;-82
2020/12/28 07:41:24;;;;;;;117.65;51.20;;;;;;;;;;5096807;28;20031;-81
2020/12/28 07:43:50;;;;;;;52.17;26.88;;;;;;;;;;5096893;28;20016;-81
2020/12/28 07:46:19;;;;;;;72.63;41.47;;;;;;;;;;5096862;28;20069;-85
2020/12/28 07:48:47;;;;;;;243.63;104.32;;;;;;;;;;5096748;28;20031;-81
2020/12/28 07:51:17;;;;;;;95.05;45.75;;;;;;;;;;5096841;28;20122;-83
2020/12/28 07:53:47;;;;;;;102.70;48.20;;;;;;;;;;5096725;28;20023;-82
2020/12/28 07:56:24;;;;;;;355.98;141.45;;;;;;;;;;5096972;28;20103;-82
2020/12/28 07:59:02;;;;;;;171.48;74.32;;;;;;;;;;5096604;28;20066;-82
2020/12/28 08:01:54;;;;;;;232.30;108.10;;;;;;;;;;5096712;28;20054;-82
2020/12/28 08:04:24;;;;;;;142.32;63.53;;;;;;;;;;5094793;28;20039;-82
2020/12/28 08:06:50;;;;;;;107.43;49.95;;;;;;;;;;5096019;28;20039;-82
2020/12/28 08:09:21;;;;;;;182.13;77.93;;;;;;;;;;5099509;28;20036;-82
2020/12/28 08:11:56;;;;;;;162.32;76.45;;;;;;;;;;5099500;28;20028;-80
2020/12/28 08:14:22;;;;;;;110.05;55.35;;;;;;;;;;5100358;28;20017;-82
2020/12/28 08:16:48;;;;;;;98.85;51.10;;;;;;;;;;5099239;28;20059;-82
2020/12/28 08:19:23;;;;;;;108.22;56.22;;;;;;;;;;5100138;28;20035;-82
2020/12/28 08:21:49;;;;;;;127.65;64.18;;;;;;;;;;5100223;28;20056;-82
2020/12/28 08:24:17;;;;;;;156.13;73.18;;;;;;;;;;5100182;28;20024;-82
2020/12/28 08:26:44;;;;;;;115.85;56.75;;;;;;;;;;5099003;28;20028;-82
2020/12/28 08:29:10;;;;;;;109.90;55.17;;;;;;;;;;5100200;28;20078;-82
2020/12/28 08:31:36;;;;;;;88.45;47.85;;;;;;;;;;5100032;28;20054;-81
2020/12/28 08:34:04;;;;;;;88.63;46.13;;;;;;;;;;5100010;28;20357;-81
2020/12/28 08:36:30;;;;;;;84.63;43.33;;;;;;;;;;5099915;28;20028;-81
2020/12/28 08:38:56;;;;;;;80.28;40.28;;;;;;;;;;5099533;28;20441;-81
2020/12/28 08:41:22;;;;;;;51.80;27.77;;;;;;;;;;5098660;28;20047;-81
2020/12/28 08:43:49;;;;;;;48.88;24.27;;;;;;;;;;5099911;28;20024;-80
2020/12/28 08:46:15;;;;;;;80.88;32.83;;;;;;;;;;5099795;28;20024;-80
2020/12/28 08:48:42;;;;;;;66.65;29.05;;;;;;;;;;5099248;28;20032;-81
2020/12/28 08:51:15;;;;;;;52.17;25.75;;;;;;;;;;5099681;28;20028;-81
2020/12/28 08:53:48;;;;;;;52.67;27.92;;;;;;;;;;5099503;28;20138;-80
2020/12/28 08:56:14;;;;;;;57.25;28.58;;;;;;;;;;5099302;28;20024;-82
2020/12/28 08:58:40;;;;;;;57.67;32.75;;;;;;;;;;5099238;28;20055;-80
2020/12/28 09:01:06;;;;;;;57.53;29.60;;;;;;;;;;5098275;28;20314;-80
2020/12/28 09:03:36;;;;;;;81.13;46.22;;;;;;;;;;5098621;28;20073;-81
2020/12/28 09:06:03;;;;;;;79.38;51.50;;;;;;;;;;5098998;28;20024;-80
2020/12/28 09:08:29;;;;;;;71.50;42.33;;;;;;;;;;5098464;28;20032;-81
2020/12/28 09:10:55;;;;;;;61.85;33.63;;;;;;;;;;5098142;28;20023;-80
2020/12/28 09:13:21;;;;;;;63.55;35.08;;;;;;;;;;5098921;28;20024;-80
2020/12/28 09:15:47;;;;;;;44.28;25.33;;;;;;;;;;5098945;28;20024;-80
2020/12/28 09:18:13;;;;;;;45.90;24.65;;;;;;;;;;5098714;28;20024;-81
2020/12/28 09:20:39;;;;;;;80.75;49.45;;;;;;;;;;5098046;28;20055;-81
2020/12/28 09:23:05;;;;;;;47.63;28.15;;;;;;;;;;5098938;28;20024;-81
2020/12/28 09:25:31;;;;;;;44.25;24.83;;;;;;;;;;5098977;28;20078;-80
2020/12/28 09:27:57;;;;;;;39.45;21.42;;;;;;;;;;5098529;28;20414;-80
2020/12/28 09:30:24;;;;;;;39.78;18.98;;;;;;;;;;5098623;28;20035;-81
2020/12/28 09:32:50;;;;;;;48.85;23.40;;;;;;;;;;5097481;28;20024;-80
2020/12/28 09:35:16;;;;;;;49.88;23.77;;;;;;;;;;5097882;28;20070;-81
2020/12/28 09:37:42;;;;;;;47.80;22.70;;;;;;;;;;5098704;28;20028;-80
2020/12/28 09:40:09;;;;;;;96.60;60.53;;;;;;;;;;5097727;28;20036;-80
2020/12/28 09:42:35;;;;;;;123.38;80.15;;;;;;;;;;5098566;28;20020;-80
2020/12/28 09:45:01;;;;;;;71.68;47.67;;;;;;;;;;5098580;28;20050;-80
2020/12/28 09:47:27;;;;;;;41.88;26.80;;;;;;;;;;5098381;28;20028;-80
2020/12/28 09:49:53;;;;;;;65.00;43.70;;;;;;;;;;5098392;28;20027;-81
2020/12/28 09:52:19;;;;;;;41.80;27.20;;;;;;;;;;5098203;28;20061;-80
2020/12/28 09:54:45;;;;;;;74.75;49.95;;;;;;;;;;5098423;28;20024;-81
2020/12/28 09:57:13;;;;;;;53.35;31.25;;;;;;;;;;5098069;28;20097;-81
2020/12/28 09:59:39;;;;;;;95.13;49.38;;;;;;;;;;5097373;28;20055;-81
2020/12/28 10:02:06;;;;;;;55.70;29.42;;;;;;;;;;5098058;28;20040;-80
2020/12/28 10:04:32;;;;;;;83.38;45.65;;;;;;;;;;5098299;28;20031;-80
2020/12/28 10:06:58;;;;;;;190.50;103.88;;;;;;;;;;5098186;28;20111;-80
2020/12/28 10:09:24;;;;;;;265.58;142.57;;;;;;;;;;5098035;28;20039;-82
2020/12/28 10:11:51;;;;;;;398.73;224.23;;;;;;;;;;5097769;28;20095;-81
2020/12/28 10:14:17;;;;;;;126.53;62.05;;;;;;;;;;5097136;28;20050;-81
2020/12/28 10:16:43;;;;;;;64.05;31.30;;;;;;;;;;5096842;28;20024;-80
2020/12/28 10:19:09;;;;;;;114.55;53.63;;;;;;;;;;5097061;28;20027;-80
2020/12/28 10:21:38;;;;;;;151.30;70.05;;;;;;;;;;5096021;28;20123;-80
2020/12/28 10:24:04;;;;;;;69.75;37.63;;;;;;;;;;5096951;28;20073;-81
2020/12/28 10:26:30;;;;;;;163.20;78.28;;;;;;;;;;5095151;28;20047;-80
2020/12/28 10:28:57;;;;;;;38.95;20.80;;;;;;;;;;5096269;28;20054;-80
2020/12/28 10:31:23;;;;;;;39.50;21.27;;;;;;;;;;5095169;28;20012;-81
2020/12/28 10:33:50;;;;;;;45.63;21.52;;;;;;;;;;5096643;28;20055;-81
2020/12/28 10:36:18;;;;;;;266.23;119.57;;;;;;;;;;5096838;28;20016;-93
2020/12/28 10:38:54;;;;;;;62.53;28.67;;;;;;;;;;5096999;28;20046;-82
2020/12/28 10:41:28;;;;;;;142.73;65.07;;;;;;;;;;5096496;28;20107;-81
2020/12/28 10:43:55;;;;;;;101.15;47.30;;;;;;;;;;5077134;28;20123;-81
2020/12/28 10:46:21;;;;;;;89.70;39.53;;;;;;;;;;5077283;28;20019;-81
2020/12/28 10:48:47;;;;;;;62.65;27.58;;;;;;;;;;5076106;28;20024;-81
2020/12/28 10:51:13;;;;;;;219.88;85.00;;;;;;;;;;5077072;28;20032;-81
2020/12/28 10:53:39;;;;;;;265.25;112.18;;;;;;;;;;5076914;28;20020;-81
2020/12/28 10:56:07;;;;;;;97.30;40.55;;;;;;;;;;5077105;28;20016;-82
2020/12/28 10:58:33;;;;;;;132.20;53.20;;;;;;;;;;5077060;28;20072;-81
2020/12/28 11:00:59;;;;;;;82.45;38.17;;;;;;;;;;5077080;28;20024;-81
2020/12/28 11:03:41;;;;;;;129.10;56.47;;;;;;;;;;5074528;28;20370;-80
2020/12/28 11:06:07;;;;;;;524.47;254.07;;;;;;;;;;5072808;28;20127;-80
2020/12/28 11:08:33;;;;;;;308.30;130.48;;;;;;;;;;5074686;28;20307;-80
2020/12/28 11:10:59;;;;;;;132.43;55.97;;;;;;;;;;5073235;28;20393;-80
2020/12/28 11:13:25;;;;;;;195.07;87.13;;;;;;;;;;5073175;28;20411;-80
2020/12/28 11:15:51;;;;;;;86.93;41.88;;;;;;;;;;5074142;28;20122;-80
2020/12/28 11:18:17;;;;;;;281.95;121.68;;;;;;;;;;5074149;28;20021;-80
2020/12/28 11:20:43;;;;;;;94.55;43.40;;;;;;;;;;5074351;28;20017;-80
2020/12/28 11:23:09;;;;;;;75.78;35.60;;;;;;;;;;5074056;28;20123;-80
2020/12/28 11:25:35;;;;;;;107.57;47.17;;;;;;;;;;5074000;28;20031;-80
2020/12/28 11:28:01;;;;;;;231.45;92.75;;;;;;;;;;5073976;28;20036;-80
2020/12/28 11:30:27;;;;;;;123.57;49.28;;;;;;;;;;5073920;28;20115;-80
2020/12/28 11:32:53;;;;;;;470.10;209.82;;;;;;;;;;5074181;28;20052;-80
2020/12/28 11:35:21;;;;;;;76.97;38.67;;;;;;;;;;5073956;28;20069;-80
2020/12/28 11:37:47;;;;;;;62.22;28.35;;;;;;;;;;5073830;28;20027;-80
2020/12/28 11:40:13;;;;;;;43.75;22.27;;;;;;;;;;5073789;28;20433;-84
2020/12/28 11:42:39;;;;;;;88.78;39.25;;;;;;;;;;5072796;28;20031;-81
2020/12/28 11:45:09;;;;;;;76.70;31.77;;;;;;;;;;5073518;28;20024;-80
2020/12/28 11:47:35;;;;;;;81.93;36.50;;;;;;;;;;5072557;28;20418;-80
2020/12/28 11:50:02;;;;;;;319.00;125.55;;;;;;;;;;5073660;28;20108;-80
2020/12/28 11:52:28;;;;;;;74.05;34.95;;;;;;;;;;5073439;28;20074;-80
2020/12/28 11:54:54;;;;;;;691.92;327.30;;;;;;;;;;5073304;28;20104;-80
2020/12/28 11:57:20;;;;;;;92.13;38.88;;;;;;;;;;5073620;28;20043;-80
2020/12/28 11:59:46;;;;;;;266.13;103.43;;;;;;;;;;5072259;28;20021;-80
2020/12/28 12:02:12;;;;;;;48.67;21.80;;;;;;;;;;5073041;28;20148;-80
2020/12/28 12:04:53;;;;;;;112.10;48.42;;;;;;;;;;5073086;28;20082;-80
2020/12/28 12:07:21;;;;;;;307.40;125.40;;;;;;;;;;5073041;28;20422;-80
2020/12/28 12:09:48;;;;;;;91.80;37.33;;;;;;;;;;5073109;28;20407;-80
2020/12/28 12:12:14;;;;;;;544.08;254.27;;;;;;;;;;5072953;28;20029;-80
2020/12/28 12:14:40;;;;;;;228.52;100.78;;;;;;;;;;5061628;28;20041;-80
2020/12/28 12:17:06;;;;;;;623.60;307.23;;;;;;;;;;5059326;28;20533;-80
2020/12/28 12:19:32;;;;;;;92.53;40.22;;;;;;;;;;5058623;28;20060;-74
2020/12/28 12:21:58;;;;;;;170.20;69.35;;;;;;;;;;5059722;28;20029;-81
2020/12/28 12:24:25;;;;;;;95.07;39.38;;;;;;;;;;5059742;28;20024;-81
2020/12/28 12:26:51;;;;;;;314.13;134.38;;;;;;;;;;5058583;28;20056;-81
2020/12/28 12:29:17;;;;;;;98.10;41.67;;;;;;;;;;5059436;28;20021;-80
2020/12/28 12:31:43;;;;;;;73.50;33.25;;;;;;;;;;5058220;28;20029;-79
2020/12/28 12:34:12;;;;;;;46.90;23.13;;;;;;;;;;5058476;28;20025;-81
2020/12/28 12:36:39;;;;;;;38.00;18.45;;;;;;;;;;5058408;28;20029;-79
2020/12/28 12:39:05;;;;;;;297.05;121.90;;;;;;;;;;5059336;28;20414;-83
2020/12/28 12:41:31;;;;;;;42.67;18.00;;;;;;;;;;5059366;28;20126;-80
2020/12/28 12:43:57;;;;;;;69.95;30.85;;;;;;;;;;5058251;28;20014;-80
2020/12/28 12:46:23;;;;;;;193.27;78.32;;;;;;;;;;5059561;28;20055;-80
2020/12/28 12:48:49;;;;;;;69.70;26.73;;;;;;;;;;5059038;28;20029;-80
2020/12/28 12:51:15;;;;;;;112.35;43.60;;;;;;;;;;5059090;28;20052;-84
2020/12/28 12:53:41;;;;;;;130.05;47.75;;;;;;;;;;5058749;28;20033;-82
2020/12/28 12:56:07;;;;;;;72.22;30.10;;;;;;;;;;5059503;28;20021;-82
2020/12/28 12:58:34;;;;;;;70.15;31.42;;;;;;;;;;5057985;28;20025;-82
2020/12/28 13:01:00;;;;;;;82.60;32.58;;;;;;;;;;5059250;28;20288;-82
2020/12/28 13:03:26;;;;;;;56.20;22.73;;;;;;;;;;5058818;28;20053;-83
2020/12/28 13:05:52;;;;;;;171.00;66.80;;;;;;;;;;5059014;28;20356;-82
2020/12/28 13:08:19;;;;;;;30.70;14.40;;;;;;;;;;5058943;28;20033;-82
2020/12/28 13:10:47;;;;;;;68.07;33.50;;;;;;;;;;5058971;28;20048;-82
2020/12/28 13:13:13;;;;;;;188.38;87.32;;;;;;;;;;5058707;28;20040;-82
2020/12/28 13:15:41;;;;;;;46.97;23.92;;;;;;;;;;5059174;28;20027;-80
2020/12/28 13:18:07;;;;;;;161.40;72.55;;;;;;;;;;5057586;28;20331;-80
2020/12/28 13:20:34;;;;;;;295.75;138.13;;;;;;;;;;5058765;28;20025;-80
2020/12/28 13:23:00;;;;;;;276.67;133.55;;;;;;;;;;5058716;28;20502;-80
2020/12/28 13:25:26;;;;;;;85.47;41.78;;;;;;;;;;5057492;28;20048;-80
2020/12/28 13:27:52;;;;;;;189.05;84.78;;;;;;;;;;5058384;28;20029;-81
2020/12/28 13:30:18;;;;;;;50.47;26.35;;;;;;;;;;5058358;28;20024;-81
2020/12/28 13:32:45;;;;;;;58.13;31.15;;;;;;;;;;5058451;28;20509;-80
2020/12/28 13:35:11;;;;;;;57.38;27.92;;;;;;;;;;5058118;28;20119;-81
2020/12/28 13:37:37;;;;;;;107.07;50.30;;;;;;;;;;5058219;28;20025;-80
2020/12/28 13:40:03;;;;;;;46.08;23.60;;;;;;;;;;5058237;28;20021;-81
2020/12/28 13:42:30;;;;;;;59.33;27.30;;;;;;;;;;5058296;28;20155;-81
2020/12/28 13:44:56;;;;;;;247.88;107.97;;;;;;;;;;5057125;28;20434;-81
2020/12/28 13:47:22;;;;;;;65.15;30.25;;;;;;;;;;5058304;28;20410;-78
2020/12/28 13:49:48;;;;;;;42.70;21.00;;;;;;;;;;5057946;28;20120;-79
2020/12/28 13:52:14;;;;;;;24.95;11.63;;;;;;;;;;5056913;28;20024;-81
2020/12/28 13:54:40;;;;;;;104.00;46.58;;;;;;;;;;5057805;28;20028;-81
2020/12/28 13:57:06;;;;;;;22.50;12.52;;;;;;;;;;5057982;28;20421;-81
2020/12/28 13:59:32;;;;;;;146.85;73.10;;;;;;;;;;5057860;28;20051;-81
2020/12/28 14:01:58;;;;;;;21.83;13.77;;;;;;;;;;5057873;28;20052;-81
2020/12/28 14:04:24;;;;;;;32.72;18.95;;;;;;;;;;5057787;28;20033;-80
2020/12/28 14:06:50;;;;;;;42.92;29.27;;;;;;;;;;5057734;28;20061;-82
2020/12/28 14:09:16;;;;;;;40.83;26.30;;;;;;;;;;5056565;28;20033;-81
2020/12/28 14:11:46;;;;;;;32.25;17.42;;;;;;;;;;5057805;28;20021;-81
2020/12/28 14:14:12;;;;;;;63.80;27.67;;;;;;;;;;5057536;28;20067;-81
2020/12/28 14:16:38;;;;;;;50.85;22.45;;;;;;;;;;5056212;28;20033;-81
2020/12/28 14:19:04;;;;;;;88.65;38.95;;;;;;;;;;5057665;28;20021;-81
2020/12/28 14:21:34;;;;;;;17.90;10.40;;;;;;;;;;5057341;28;20025;-81
2020/12/28 14:24:00;;;;;;;65.05;27.50;;;;;;;;;;5057518;28;20474;-81
2020/12/28 14:26:26;;;;;;;74.18;34.78;;;;;;;;;;5057520;28;20029;-81